Time;durP1;ratioP1;P1;durP2;ratioP2;P2;SDS_P1;SDS_P2;PMS_P1;PMS_P2;Temp;Humidity;BMP_temperature;BMP_pressure;BME280_temperature;BME280_humidity;BME280_pressure;Samples;Min_cycle;Max_cycle;Signal;HPM_P1;HPM_P2
2023/05/24 00:01:30;;;;;;;17.20;9.10;;;;;;;-128.00;-1.00;-1.00;18493;312;7505389;-36
2023/05/24 00:03:59;;;;;;;14.20;10.30;;;;;;;-128.00;-1.00;-1.00;18856;336;7505039;-31
2023/05/24 00:06:26;;;;;;;14.00;10.70;;;;;;;-128.00;-1.00;-1.00;18476;297;7506428;-34
2023/05/24 00:08:55;;;;;;;11.40;9.40;;;;;;;-128.00;-1.00;-1.00;18519;289;7504746;-31
2023/05/24 00:11:21;;;;;;;14.40;11.70;;;;;;;-128.00;-1.00;-1.00;18465;285;7506499;-35
2023/05/24 00:13:47;;;;;;;11.90;10.00;;;;;;;-128.00;-1.00;-1.00;18470;297;7504349;-31
2023/05/24 00:16:12;;;;;;;11.80;9.70;;;;;;;-128.00;-1.00;-1.00;18467;296;7504301;-32
2023/05/24 00:18:39;;;;;;;12.00;9.60;;;;;;;-128.00;-1.00;-1.00;18483;285;7504563;-31
2023/05/24 00:21:07;;;;;;;7.90;7.10;;;;;;;-128.00;-1.00;-1.00;18480;348;7506128;-35
2023/05/24 00:23:33;;;;;;;12.40;8.40;;;;;;;-128.00;-1.00;-1.00;18495;289;7505594;-32
2023/05/24 00:26:00;;;;;;;11.70;9.40;;;;;;;-128.00;-1.00;-1.00;18473;289;7504956;-34
2023/05/24 00:28:26;;;;;;;11.50;9.00;;;;;;;-128.00;-1.00;-1.00;18495;285;7504158;-34
2023/05/24 00:30:52;;;;;;;21.30;11.30;;;;;;;-128.00;-1.00;-1.00;18498;289;7504886;-32
2023/05/24 00:33:17;;;;;;;11.60;8.70;;;;;;;-128.00;-1.00;-1.00;18472;285;7506287;-33
2023/05/24 00:35:43;;;;;;;20.10;12.70;;;;;;;-128.00;-1.00;-1.00;18869;296;7504323;-32
2023/05/24 00:38:10;;;;;;;16.30;11.60;;;;;;;-128.00;-1.00;-1.00;18900;296;7504452;-35
2023/05/24 00:40:36;;;;;;;22.50;12.90;;;;;;;-128.00;-1.00;-1.00;18857;345;7504121;-36
2023/05/24 00:43:02;;;;;;;18.60;13.60;;;;;;;-128.00;-1.00;-1.00;18856;296;7504731;-36
2023/05/24 00:45:28;;;;;;;17.10;12.70;;;;;;;-128.00;-1.00;-1.00;18875;285;7505375;-32
2023/05/24 00:47:54;;;;;;;14.90;11.40;;;;;;;-128.00;-1.00;-1.00;18878;287;7506358;-32
2023/05/24 00:50:20;;;;;;;16.50;11.80;;;;;;;-128.00;-1.00;-1.00;18875;296;7504532;-31
2023/05/24 00:52:47;;;;;;;24.10;14.70;;;;;;;-128.00;-1.00;-1.00;18869;296;7507040;-32
2023/05/24 00:55:13;;;;;;;20.60;13.00;;;;;;;-128.00;-1.00;-1.00;18876;295;7504152;-30
2023/05/24 00:57:39;;;;;;;15.50;12.70;;;;;;;-128.00;-1.00;-1.00;18896;297;7505225;-32
2023/05/24 01:00:07;;;;;;;23.20;14.90;;;;;;;-128.00;-1.00;-1.00;18909;295;7504453;-34
2023/05/24 01:02:34;;;;;;;19.40;11.70;;;;;;;-128.00;-1.00;-1.00;18454;288;7505835;-33
2023/05/24 01:05:00;;;;;;;26.60;14.40;;;;;;;-128.00;-1.00;-1.00;18878;296;7504605;-32
2023/05/24 01:07:53;;;;;;;18.80;12.90;;;;;;;-128.00;-1.00;-1.00;18890;288;7504856;-37
2023/05/24 01:10:31;;;;;;;13.40;10.30;;;;;;;-128.00;-1.00;-1.00;18461;295;7504204;-32
2023/05/24 01:13:07;;;;;;;17.40;13.30;;;;;;;-128.00;-1.00;-1.00;18489;296;7504387;-35
2023/05/24 01:15:56;;;;;;;19.20;12.30;;;;;;;-128.00;-1.00;-1.00;18483;348;7504498;-35
2023/05/24 01:18:30;;;;;;;16.80;12.50;;;;;;;-128.00;-1.00;-1.00;18476;288;7504462;-31
2023/05/24 01:21:28;;;;;;;16.10;12.60;;;;;;;-128.00;-1.00;-1.00;18491;288;7507150;-35
2023/05/24 01:24:11;;;;;;;19.10;13.20;;;;;;;-128.00;-1.00;-1.00;18458;295;7507047;-32
2023/05/24 01:26:44;;;;;;;16.40;10.80;;;;;;;-128.00;-1.00;-1.00;18475;288;7504308;-35
2023/05/24 01:29:09;;;;;;;12.30;6.60;;;;;;;-128.00;-1.00;-1.00;18480;288;7504903;-35
2023/05/24 01:31:35;;;;;;;22.50;15.90;;;;;;;-128.00;-1.00;-1.00;18866;288;7504935;-35
2023/05/24 01:34:01;;;;;;;17.00;11.00;;;;;;;-128.00;-1.00;-1.00;18878;288;7505361;-31
2023/05/24 01:36:28;;;;;;;15.80;10.70;;;;;;;-128.00;-1.00;-1.00;18918;288;7504639;-33
2023/05/24 01:38:54;;;;;;;19.50;12.40;;;;;;;-128.00;-1.00;-1.00;18887;331;7504226;-35
2023/05/24 01:41:45;;;;;;;21.60;16.90;;;;;;;-128.00;-1.00;-1.00;18852;295;7505001;-32
2023/05/24 01:44:26;;;;;;;19.10;13.00;;;;;;;-128.00;-1.00;-1.00;18438;336;7506681;-36
2023/05/24 01:46:59;;;;;;;20.90;13.90;;;;;;;-128.00;-1.00;-1.00;18461;295;7504413;-32
2023/05/24 01:49:25;;;;;;;19.60;14.10;;;;;;;-128.00;-1.00;-1.00;18496;288;7505191;-36
2023/05/24 01:52:04;;;;;;;16.10;11.80;;;;;;;-128.00;-1.00;-1.00;18484;295;7505505;-32
2023/05/24 01:54:32;;;;;;;19.90;14.10;;;;;;;-128.00;-1.00;-1.00;18458;288;7506236;-36
2023/05/24 01:56:58;;;;;;;25.70;14.30;;;;;;;-128.00;-1.00;-1.00;18480;295;7505099;-32
2023/05/24 01:59:24;;;;;;;16.20;11.10;;;;;;;-128.00;-1.00;-1.00;18479;288;7505814;-32
2023/05/24 02:01:50;;;;;;;22.60;14.50;;;;;;;-128.00;-1.00;-1.00;18483;295;7504763;-32
2023/05/24 02:04:17;;;;;;;19.00;14.10;;;;;;;-128.00;-1.00;-1.00;18456;288;7505059;-36
2023/05/24 02:06:42;;;;;;;28.90;9.10;;;;;;;-128.00;-1.00;-1.00;18472;297;7504836;-37
2023/05/24 02:09:08;;;;;;;21.60;15.70;;;;;;;-128.00;-1.00;-1.00;18483;288;7504375;-31
2023/05/24 02:11:34;;;;;;;19.80;9.90;;;;;;;-128.00;-1.00;-1.00;18444;304;7504954;-35
2023/05/24 02:13:59;;;;;;;27.60;15.60;;;;;;;-128.00;-1.00;-1.00;18457;347;7506466;-31
2023/05/24 02:16:29;;;;;;;21.60;13.80;;;;;;;-128.00;-1.00;-1.00;18459;295;7504830;-36
2023/05/24 02:18:56;;;;;;;25.40;13.70;;;;;;;-128.00;-1.00;-1.00;18481;331;7505841;-31
2023/05/24 02:21:23;;;;;;;17.10;12.30;;;;;;;-128.00;-1.00;-1.00;18472;347;7505117;-33
2023/05/24 02:23:48;;;;;;;18.00;7.20;;;;;;;-128.00;-1.00;-1.00;18454;295;7504408;-35
2023/05/24 02:26:16;;;;;;;17.40;13.60;;;;;;;-128.00;-1.00;-1.00;18499;295;7506561;-35
2023/05/24 02:28:42;;;;;;;9.40;7.30;;;;;;;-128.00;-1.00;-1.00;18494;336;7505034;-35
2023/05/24 02:31:08;;;;;;;17.20;10.20;;;;;;;-128.00;-1.00;-1.00;18474;288;7504836;-36
2023/05/24 02:33:34;;;;;;;19.50;12.70;;;;;;;-128.00;-1.00;-1.00;18465;339;7504568;-32
2023/05/24 02:36:00;;;;;;;18.10;11.10;;;;;;;-128.00;-1.00;-1.00;18479;296;7504814;-36
2023/05/24 02:38:25;;;;;;;20.10;13.20;;;;;;;-128.00;-1.00;-1.00;18461;348;7505821;-35
2023/05/24 02:40:51;;;;;;;16.70;9.30;;;;;;;-128.00;-1.00;-1.00;18461;295;7505446;-32
2023/05/24 02:43:17;;;;;;;28.30;11.30;;;;;;;-128.00;-1.00;-1.00;18476;348;7504835;-36
2023/05/24 02:45:43;;;;;;;17.40;8.60;;;;;;;-128.00;-1.00;-1.00;18455;336;7504575;-35
2023/05/24 02:48:09;;;;;;;16.70;8.80;;;;;;;-128.00;-1.00;-1.00;18883;296;7505346;-32
2023/05/24 02:50:35;;;;;;;17.00;7.90;;;;;;;-128.00;-1.00;-1.00;18880;288;7505200;-31
2023/05/24 02:53:01;;;;;;;8.30;6.30;;;;;;;-128.00;-1.00;-1.00;18882;295;7505149;-31
2023/05/24 02:55:28;;;;;;;11.00;4.70;;;;;;;-128.00;-1.00;-1.00;18882;295;7505467;-32
2023/05/24 02:57:55;;;;;;;9.90;6.60;;;;;;;-128.00;-1.00;-1.00;18871;295;7505324;-31
2023/05/24 03:00:20;;;;;;;8.20;6.90;;;;;;;-128.00;-1.00;-1.00;18491;296;7504369;-35
2023/05/24 03:02:46;;;;;;;12.10;7.00;;;;;;;-128.00;-1.00;-1.00;18499;296;7505552;-31
2023/05/24 03:05:12;;;;;;;7.60;5.30;;;;;;;-128.00;-1.00;-1.00;18446;295;7504464;-32
2023/05/24 03:07:39;;;;;;;14.60;7.40;;;;;;;-128.00;-1.00;-1.00;18858;295;7504341;-32
2023/05/24 03:10:05;;;;;;;7.70;3.80;;;;;;;-128.00;-1.00;-1.00;18461;297;7505996;-35
2023/05/24 03:12:31;;;;;;;7.20;5.00;;;;;;;-128.00;-1.00;-1.00;18468;288;7506080;-32
2023/05/24 03:14:57;;;;;;;13.30;8.40;;;;;;;-128.00;-1.00;-1.00;18857;289;7504533;-32
2023/05/24 03:17:23;;;;;;;9.70;7.90;;;;;;;-128.00;-1.00;-1.00;18887;296;7504288;-31
2023/05/24 03:19:51;;;;;;;9.00;6.30;;;;;;;-128.00;-1.00;-1.00;18873;295;7504619;-32
2023/05/24 03:22:16;;;;;;;8.10;6.40;;;;;;;-128.00;-1.00;-1.00;18510;296;7504861;-31
2023/05/24 03:24:42;;;;;;;12.20;7.00;;;;;;;-128.00;-1.00;-1.00;18891;312;7504876;-35
2023/05/24 03:27:09;;;;;;;11.40;7.20;;;;;;;-128.00;-1.00;-1.00;18884;348;7504480;-31
2023/05/24 03:29:35;;;;;;;13.90;9.20;;;;;;;-128.00;-1.00;-1.00;18861;296;7505654;-35
2023/05/24 03:32:01;;;;;;;13.00;6.90;;;;;;;-128.00;-1.00;-1.00;18861;296;7505310;-37
2023/05/24 03:34:27;;;;;;;8.50;6.10;;;;;;;-128.00;-1.00;-1.00;18895;296;7504725;-32
2023/05/24 03:36:53;;;;;;;9.70;5.00;;;;;;;-128.00;-1.00;-1.00;18865;297;7504496;-31
2023/05/24 03:39:19;;;;;;;5.90;4.50;;;;;;;-128.00;-1.00;-1.00;18872;296;7505029;-31
2023/05/24 03:41:46;;;;;;;7.10;4.00;;;;;;;-128.00;-1.00;-1.00;18876;296;7504683;-31
2023/05/24 03:44:12;;;;;;;2.80;1.80;;;;;;;-128.00;-1.00;-1.00;18886;297;7504925;-37
2023/05/24 03:46:38;;;;;;;2.30;1.50;;;;;;;-128.00;-1.00;-1.00;18873;288;7504980;-33
2023/05/24 03:49:05;;;;;;;4.00;2.70;;;;;;;-128.00;-1.00;-1.00;18481;337;7505426;-36
2023/05/24 03:51:31;;;;;;;8.60;3.00;;;;;;;-128.00;-1.00;-1.00;18482;320;7506077;-31
2023/05/24 03:53:57;;;;;;;6.70;2.40;;;;;;;-128.00;-1.00;-1.00;18487;300;7504933;-32
2023/05/24 03:56:25;;;;;;;5.20;1.90;;;;;;;-128.00;-1.00;-1.00;18446;308;7505753;-31
2023/05/24 03:58:51;;;;;;;6.00;1.40;;;;;;;-128.00;-1.00;-1.00;18471;296;7504933;-31
2023/05/24 04:01:17;;;;;;;3.80;2.20;;;;;;;-128.00;-1.00;-1.00;18419;298;7506812;-35
2023/05/24 04:03:44;;;;;;;2.10;1.20;;;;;;;-128.00;-1.00;-1.00;18457;296;7504291;-35
2023/05/24 04:06:11;;;;;;;3.40;0.90;;;;;;;-128.00;-1.00;-1.00;18500;296;7505443;-35
2023/05/24 04:08:37;;;;;;;3.70;1.00;;;;;;;-128.00;-1.00;-1.00;18470;288;7506257;-35
2023/05/24 04:11:03;;;;;;;2.50;1.10;;;;;;;-128.00;-1.00;-1.00;18853;348;7505046;-35
2023/05/24 04:13:29;;;;;;;3.40;2.00;;;;;;;-128.00;-1.00;-1.00;18854;284;7504917;-35
2023/05/24 04:15:55;;;;;;;2.20;1.10;;;;;;;-128.00;-1.00;-1.00;18873;296;7504647;-34
2023/05/24 04:18:22;;;;;;;4.80;1.70;;;;;;;-128.00;-1.00;-1.00;18858;296;7504458;-36
2023/05/24 04:20:48;;;;;;;5.30;1.80;;;;;;;-128.00;-1.00;-1.00;18859;297;7505688;-32
2023/05/24 04:23:14;;;;;;;1.30;1.00;;;;;;;-128.00;-1.00;-1.00;18893;296;7505265;-32
2023/05/24 04:25:41;;;;;;;2.50;2.00;;;;;;;-128.00;-1.00;-1.00;18852;295;7504332;-34
2023/05/24 04:28:07;;;;;;;1.70;1.60;;;;;;;-128.00;-1.00;-1.00;18864;295;7504557;-35
2023/05/24 04:30:35;;;;;;;3.20;1.90;;;;;;;-128.00;-1.00;-1.00;18883;288;7504128;-31
2023/05/24 04:33:02;;;;;;;2.10;1.40;;;;;;;-128.00;-1.00;-1.00;18484;288;7505987;-31
2023/05/24 04:35:29;;;;;;;2.70;1.50;;;;;;;-128.00;-1.00;-1.00;18456;295;7506044;-32
2023/05/24 04:37:54;;;;;;;2.00;0.60;;;;;;;-128.00;-1.00;-1.00;18451;298;7505950;-32
2023/05/24 04:40:21;;;;;;;0.30;0.30;;;;;;;-128.00;-1.00;-1.00;18489;295;7506061;-35
2023/05/24 04:42:47;;;;;;;1.40;0.60;;;;;;;-128.00;-1.00;-1.00;18464;308;7506156;-31
2023/05/24 04:45:13;;;;;;;0.90;0.70;;;;;;;-128.00;-1.00;-1.00;18465;288;7505176;-31
2023/05/24 04:47:39;;;;;;;1.80;0.50;;;;;;;-128.00;-1.00;-1.00;18465;295;7507157;-30
2023/05/24 04:50:06;;;;;;;6.10;1.20;;;;;;;-128.00;-1.00;-1.00;18497;295;7505067;-34
2023/05/24 04:52:32;;;;;;;3.00;1.10;;;;;;;-128.00;-1.00;-1.00;18450;340;7504626;-31
2023/05/24 04:54:57;;;;;;;1.30;0.70;;;;;;;-128.00;-1.00;-1.00;18474;348;7505590;-31
2023/05/24 04:57:23;;;;;;;0.50;0.30;;;;;;;-128.00;-1.00;-1.00;18459;295;7504323;-37
2023/05/24 04:59:49;;;;;;;1.00;0.60;;;;;;;-128.00;-1.00;-1.00;18495;295;7504905;-31
2023/05/24 05:02:15;;;;;;;0.70;0.40;;;;;;;-128.00;-1.00;-1.00;18877;295;7505629;-36
2023/05/24 05:04:41;;;;;;;7.90;2.10;;;;;;;-128.00;-1.00;-1.00;18863;288;7504357;-30
2023/05/24 05:07:07;;;;;;;1.80;0.60;;;;;;;-128.00;-1.00;-1.00;18891;344;7504803;-34
2023/05/24 05:09:33;;;;;;;1.60;0.90;;;;;;;-128.00;-1.00;-1.00;18862;288;7505062;-31
2023/05/24 05:11:59;;;;;;;1.10;0.60;;;;;;;-128.00;-1.00;-1.00;18843;348;7505239;-35
2023/05/24 05:14:26;;;;;;;0.90;0.70;;;;;;;-128.00;-1.00;-1.00;18910;288;7504567;-34
2023/05/24 05:16:52;;;;;;;3.10;1.30;;;;;;;-128.00;-1.00;-1.00;18886;296;7504393;-35
2023/05/24 05:19:18;;;;;;;2.20;0.70;;;;;;;-128.00;-1.00;-1.00;18889;288;7504206;-32
2023/05/24 05:21:44;;;;;;;1.40;0.90;;;;;;;-128.00;-1.00;-1.00;18851;295;7504449;-32
2023/05/24 05:24:11;;;;;;;2.70;0.60;;;;;;;-128.00;-1.00;-1.00;18856;288;7504716;-36
2023/05/24 05:26:36;;;;;;;1.30;0.90;;;;;;;-128.00;-1.00;-1.00;18471;304;7504755;-33
2023/05/24 05:29:02;;;;;;;1.30;0.60;;;;;;;-128.00;-1.00;-1.00;18453;295;7504366;-36
2023/05/24 05:31:28;;;;;;;0.40;0.40;;;;;;;-128.00;-1.00;-1.00;18469;295;7504700;-35
2023/05/24 05:33:54;;;;;;;1.10;1.00;;;;;;;-128.00;-1.00;-1.00;18460;297;7504885;-35
2023/05/24 05:36:20;;;;;;;0.60;0.60;;;;;;;-128.00;-1.00;-1.00;18443;296;7507012;-32
2023/05/24 05:38:45;;;;;;;1.10;0.50;;;;;;;-128.00;-1.00;-1.00;18460;348;7504495;-34
2023/05/24 05:41:11;;;;;;;1.00;0.60;;;;;;;-128.00;-1.00;-1.00;18858;297;7504487;-35
2023/05/24 05:43:38;;;;;;;2.40;1.00;;;;;;;-128.00;-1.00;-1.00;18852;297;7504371;-35
2023/05/24 05:46:04;;;;;;;1.40;1.00;;;;;;;-128.00;-1.00;-1.00;18882;348;7504407;-33
2023/05/24 05:48:30;;;;;;;2.20;2.00;;;;;;;-128.00;-1.00;-1.00;18471;288;7505598;-36
2023/05/24 05:50:56;;;;;;;2.10;0.90;;;;;;;-128.00;-1.00;-1.00;18457;295;7505955;-32
2023/05/24 05:53:22;;;;;;;3.50;1.40;;;;;;;-128.00;-1.00;-1.00;18893;295;7504660;-32
2023/05/24 05:55:48;;;;;;;1.40;0.90;;;;;;;-128.00;-1.00;-1.00;18856;295;7504287;-30
2023/05/24 05:58:15;;;;;;;1.20;0.60;;;;;;;-128.00;-1.00;-1.00;18867;288;7504610;-35
2023/05/24 06:00:41;;;;;;;1.70;0.70;;;;;;;-128.00;-1.00;-1.00;18875;288;7505055;-32
2023/05/24 06:03:07;;;;;;;1.00;0.70;;;;;;;-128.00;-1.00;-1.00;18870;297;7504821;-36
2023/05/24 06:05:33;;;;;;;1.40;0.60;;;;;;;-128.00;-1.00;-1.00;18874;296;7504698;-33
2023/05/24 06:07:59;;;;;;;0.60;0.40;;;;;;;-128.00;-1.00;-1.00;18455;295;7504808;-32
2023/05/24 06:10:26;;;;;;;1.80;0.50;;;;;;;-128.00;-1.00;-1.00;18466;295;7504144;-37
2023/05/24 06:12:52;;;;;;;0.20;0.20;;;;;;;-128.00;-1.00;-1.00;18466;342;7505983;-33
2023/05/24 06:15:21;;;;;;;0.70;0.30;;;;;;;-128.00;-1.00;-1.00;18487;288;7506238;-32
2023/05/24 06:17:49;;;;;;;0.50;0.50;;;;;;;-128.00;-1.00;-1.00;18483;296;7504726;-37
2023/05/24 06:20:15;;;;;;;0.90;0.50;;;;;;;-128.00;-1.00;-1.00;18498;296;7504821;-37
2023/05/24 06:22:41;;;;;;;0.30;0.30;;;;;;;-128.00;-1.00;-1.00;18479;296;7504813;-32
2023/05/24 06:25:07;;;;;;;0.70;0.60;;;;;;;-128.00;-1.00;-1.00;18478;295;7505378;-35
2023/05/24 06:27:33;;;;;;;0.20;0.20;;;;;;;-128.00;-1.00;-1.00;18473;349;7506528;-37
2023/05/24 06:29:59;;;;;;;1.30;0.60;;;;;;;-128.00;-1.00;-1.00;18883;284;7504928;-37
2023/05/24 06:32:25;;;;;;;1.40;0.80;;;;;;;-128.00;-1.00;-1.00;18907;295;7505245;-37
2023/05/24 06:34:51;;;;;;;1.40;0.60;;;;;;;-128.00;-1.00;-1.00;18906;295;7505012;-38
2023/05/24 06:37:17;;;;;;;1.40;0.50;;;;;;;-128.00;-1.00;-1.00;18883;285;7504876;-37
2023/05/24 06:39:43;;;;;;;2.00;0.90;;;;;;;-128.00;-1.00;-1.00;18877;295;7504526;-37
2023/05/24 06:42:10;;;;;;;2.20;0.80;;;;;;;-128.00;-1.00;-1.00;18875;341;7505203;-38
2023/05/24 06:44:36;;;;;;;2.20;0.70;;;;;;;-128.00;-1.00;-1.00;18857;296;7504720;-37
2023/05/24 06:47:02;;;;;;;2.10;0.60;;;;;;;-128.00;-1.00;-1.00;18877;296;7505319;-33
2023/05/24 06:49:28;;;;;;;1.50;0.70;;;;;;;-128.00;-1.00;-1.00;18886;319;7504984;-33
2023/05/24 06:51:55;;;;;;;0.70;0.50;;;;;;;-128.00;-1.00;-1.00;18849;295;7505053;-33
2023/05/24 06:54:21;;;;;;;2.40;1.10;;;;;;;-128.00;-1.00;-1.00;18853;336;7507405;-34
2023/05/24 06:56:47;;;;;;;0.90;0.70;;;;;;;-128.00;-1.00;-1.00;18859;295;7504748;-37
2023/05/24 06:59:14;;;;;;;1.90;0.60;;;;;;;-128.00;-1.00;-1.00;18868;296;7504710;-33
2023/05/24 07:01:41;;;;;;;1.20;0.50;;;;;;;-128.00;-1.00;-1.00;18913;300;7504577;-33
2023/05/24 07:04:08;;;;;;;0.80;0.70;;;;;;;-128.00;-1.00;-1.00;18444;295;7504351;-37
2023/05/24 07:06:36;;;;;;;0.50;0.50;;;;;;;-128.00;-1.00;-1.00;18480;316;7504804;-33
2023/05/24 07:09:04;;;;;;;3.90;1.50;;;;;;;-128.00;-1.00;-1.00;18473;295;7506013;-32
2023/05/24 07:11:30;;;;;;;1.00;0.80;;;;;;;-128.00;-1.00;-1.00;18478;297;7504969;-33
2023/05/24 07:13:56;;;;;;;3.10;1.10;;;;;;;-128.00;-1.00;-1.00;18458;288;7504575;-39
2023/05/24 07:16:22;;;;;;;1.80;1.00;;;;;;;-128.00;-1.00;-1.00;18463;295;7504765;-37
2023/05/24 07:18:48;;;;;;;1.30;0.70;;;;;;;-128.00;-1.00;-1.00;18489;348;7506059;-33
2023/05/24 07:21:14;;;;;;;1.60;0.80;;;;;;;-128.00;-1.00;-1.00;18862;304;7504189;-34
2023/05/24 07:23:40;;;;;;;4.60;1.30;;;;;;;-128.00;-1.00;-1.00;18857;297;7504579;-31
2023/05/24 07:26:07;;;;;;;5.30;1.20;;;;;;;-128.00;-1.00;-1.00;18867;295;7505490;-31
2023/05/24 07:28:36;;;;;;;1.40;1.10;;;;;;;-128.00;-1.00;-1.00;18463;288;7506190;-35
2023/05/24 07:31:03;;;;;;;3.20;1.40;;;;;;;-128.00;-1.00;-1.00;18461;288;7504808;-35
2023/05/24 07:33:29;;;;;;;8.50;1.40;;;;;;;-128.00;-1.00;-1.00;18457;288;7506046;-35
2023/05/24 07:35:54;;;;;;;2.20;1.40;;;;;;;-128.00;-1.00;-1.00;18449;295;7504519;-32
2023/05/24 07:38:20;;;;;;;3.00;1.50;;;;;;;-128.00;-1.00;-1.00;18898;288;7505282;-36
2023/05/24 07:40:47;;;;;;;5.50;1.00;;;;;;;-128.00;-1.00;-1.00;18868;295;7504125;-31
2023/05/24 07:43:13;;;;;;;2.40;1.50;;;;;;;-128.00;-1.00;-1.00;18860;296;7504864;-35
2023/05/24 07:45:39;;;;;;;3.10;1.90;;;;;;;-128.00;-1.00;-1.00;18474;288;7506650;-32
2023/05/24 07:48:05;;;;;;;5.00;1.70;;;;;;;-128.00;-1.00;-1.00;18875;297;7504858;-36
2023/05/24 07:50:32;;;;;;;2.30;1.70;;;;;;;-128.00;-1.00;-1.00;18886;295;7505711;-33
2023/05/24 07:52:58;;;;;;;1.40;1.10;;;;;;;-128.00;-1.00;-1.00;18387;289;7505736;-35
2023/05/24 07:55:26;;;;;;;2.90;1.30;;;;;;;-128.00;-1.00;-1.00;18871;296;7505094;-35
2023/05/24 07:57:52;;;;;;;1.70;1.60;;;;;;;-128.00;-1.00;-1.00;18483;288;7505875;-36
2023/05/24 08:00:19;;;;;;;3.00;1.50;;;;;;;-128.00;-1.00;-1.00;18865;295;7505123;-32
2023/05/24 08:02:45;;;;;;;1.20;0.90;;;;;;;-128.00;-1.00;-1.00;18468;295;7504880;-37
2023/05/24 08:05:11;;;;;;;3.30;2.00;;;;;;;-128.00;-1.00;-1.00;18456;295;7504967;-36
2023/05/24 08:07:37;;;;;;;5.10;1.40;;;;;;;-128.00;-1.00;-1.00;18456;285;7504958;-36
2023/05/24 08:10:05;;;;;;;2.20;1.20;;;;;;;-128.00;-1.00;-1.00;18482;295;7504814;-32
2023/05/24 08:12:30;;;;;;;1.50;1.30;;;;;;;-128.00;-1.00;-1.00;18475;295;7506517;-32
2023/05/24 08:14:56;;;;;;;2.60;1.40;;;;;;;-128.00;-1.00;-1.00;18865;320;7504805;-35
2023/05/24 08:17:22;;;;;;;3.30;0.80;;;;;;;-128.00;-1.00;-1.00;18874;296;7504565;-31
2023/05/24 08:19:49;;;;;;;1.20;1.10;;;;;;;-128.00;-1.00;-1.00;18468;296;7504343;-37
2023/05/24 08:22:15;;;;;;;3.00;1.10;;;;;;;-128.00;-1.00;-1.00;18459;295;7504992;-37
2023/05/24 08:24:41;;;;;;;12.50;2.20;;;;;;;-128.00;-1.00;-1.00;18447;348;7505018;-36
2023/05/24 08:27:07;;;;;;;3.80;2.00;;;;;;;-128.00;-1.00;-1.00;18467;295;7504691;-32
2023/05/24 08:29:34;;;;;;;1.90;1.60;;;;;;;-128.00;-1.00;-1.00;18466;295;7504255;-33
2023/05/24 08:32:00;;;;;;;4.10;1.40;;;;;;;-128.00;-1.00;-1.00;18488;288;7504578;-33
2023/05/24 08:34:27;;;;;;;2.60;1.20;;;;;;;-128.00;-1.00;-1.00;18456;295;7504436;-35
2023/05/24 08:36:53;;;;;;;2.40;1.90;;;;;;;-128.00;-1.00;-1.00;18468;295;7505333;-36
2023/05/24 08:39:19;;;;;;;10.70;2.80;;;;;;;-128.00;-1.00;-1.00;18479;288;7506702;-31
2023/05/24 08:41:45;;;;;;;3.30;1.60;;;;;;;-128.00;-1.00;-1.00;18466;297;7506213;-32
2023/05/24 08:44:11;;;;;;;2.30;2.10;;;;;;;-128.00;-1.00;-1.00;18508;295;7504268;-36
2023/05/24 08:46:37;;;;;;;4.50;3.40;;;;;;;-128.00;-1.00;-1.00;18448;296;7506000;-32
2023/05/24 08:49:03;;;;;;;6.80;3.40;;;;;;;-128.00;-1.00;-1.00;18454;295;7504954;-36
2023/05/24 08:51:29;;;;;;;9.80;2.80;;;;;;;-128.00;-1.00;-1.00;18465;296;7505113;-30
2023/05/24 08:53:59;;;;;;;1.20;0.90;;;;;;;-128.00;-1.00;-1.00;18473;288;7505804;-31
2023/05/24 08:56:28;;;;;;;4.50;2.30;;;;;;;-128.00;-1.00;-1.00;18475;297;7504406;-31
2023/05/24 08:58:54;;;;;;;14.90;2.30;;;;;;;-128.00;-1.00;-1.00;18461;340;7504471;-31
2023/05/24 09:01:20;;;;;;;4.50;2.90;;;;;;;-128.00;-1.00;-1.00;18495;295;7504479;-36
2023/05/24 09:03:46;;;;;;;7.30;2.30;;;;;;;-128.00;-1.00;-1.00;18490;297;7504938;-32
2023/05/24 09:06:15;;;;;;;12.00;3.10;;;;;;;-128.00;-1.00;-1.00;18478;288;7504855;-32
2023/05/24 09:08:41;;;;;;;8.80;3.20;;;;;;;-128.00;-1.00;-1.00;18448;284;7505020;-32
2023/05/24 09:11:07;;;;;;;9.50;3.60;;;;;;;-128.00;-1.00;-1.00;18450;336;7504782;-36
2023/05/24 09:13:33;;;;;;;6.20;2.10;;;;;;;-128.00;-1.00;-1.00;18471;298;7504650;-32
2023/05/24 09:16:00;;;;;;;3.90;2.30;;;;;;;-128.00;-1.00;-1.00;18440;295;7504806;-32
2023/05/24 09:18:25;;;;;;;4.70;2.10;;;;;;;-128.00;-1.00;-1.00;18478;295;7505448;-31
2023/05/24 09:20:52;;;;;;;6.70;1.60;;;;;;;-128.00;-1.00;-1.00;18868;288;7505109;-31
2023/05/24 09:23:17;;;;;;;5.60;2.50;;;;;;;-128.00;-1.00;-1.00;18462;288;7506245;-31
2023/05/24 09:25:44;;;;;;;11.00;2.70;;;;;;;-128.00;-1.00;-1.00;18466;295;7504948;-35
2023/05/24 09:28:16;;;;;;;9.30;2.80;;;;;;;-128.00;-1.00;-1.00;18471;337;7505392;-32
2023/05/24 09:30:43;;;;;;;5.40;3.80;;;;;;;-128.00;-1.00;-1.00;18469;347;7506179;-35
2023/05/24 09:33:10;;;;;;;6.00;3.20;;;;;;;-128.00;-1.00;-1.00;18468;295;7505914;-35
2023/05/24 09:35:35;;;;;;;5.80;2.10;;;;;;;-128.00;-1.00;-1.00;18484;295;7504759;-31
2023/05/24 09:38:02;;;;;;;2.60;1.60;;;;;;;-128.00;-1.00;-1.00;18476;337;7505971;-31
2023/05/24 09:40:28;;;;;;;12.70;1.80;;;;;;;-128.00;-1.00;-1.00;18476;296;7505149;-34
2023/05/24 09:43:10;;;;;;;20.50;3.30;;;;;;;-128.00;-1.00;-1.00;18499;295;7505441;-35
2023/05/24 09:45:45;;;;;;;17.40;3.00;;;;;;;-128.00;-1.00;-1.00;18498;288;7504388;-35
2023/05/24 09:48:12;;;;;;;7.00;3.10;;;;;;;-128.00;-1.00;-1.00;18488;337;7504849;-32
2023/05/24 09:50:37;;;;;;;13.00;5.00;;;;;;;-128.00;-1.00;-1.00;18465;295;7504935;-35
2023/05/24 09:53:03;;;;;;;4.10;3.20;;;;;;;-128.00;-1.00;-1.00;18470;288;7505872;-36
2023/05/24 09:55:29;;;;;;;8.10;5.20;;;;;;;-128.00;-1.00;-1.00;18474;348;7506005;-32
2023/05/24 09:58:07;;;;;;;10.40;3.70;;;;;;;-128.00;-1.00;-1.00;18444;336;7504813;-36
2023/05/24 10:00:35;;;;;;;9.50;4.10;;;;;;;-128.00;-1.00;-1.00;18461;295;7504990;-31
2023/05/24 10:03:06;;;;;;;18.80;4.20;;;;;;;-128.00;-1.00;-1.00;18470;288;7505280;-36
2023/05/24 10:05:32;;;;;;;1.40;1.10;;;;;;;-128.00;-1.00;-1.00;18489;296;7505035;-36
2023/05/24 10:07:58;;;;;;;5.70;3.90;;;;;;;-128.00;-1.00;-1.00;18462;288;7504434;-32
2023/05/24 10:10:27;;;;;;;21.20;3.20;;;;;;;-128.00;-1.00;-1.00;18464;297;7506266;-33
2023/05/24 10:12:52;;;;;;;4.50;3.10;;;;;;;-128.00;-1.00;-1.00;18479;284;7505044;-36
2023/05/24 10:15:18;;;;;;;4.70;3.40;;;;;;;-128.00;-1.00;-1.00;18471;288;7504751;-32
2023/05/24 10:17:44;;;;;;;4.90;3.20;;;;;;;-128.00;-1.00;-1.00;18468;348;7506255;-35
2023/05/24 10:20:11;;;;;;;9.50;5.30;;;;;;;-128.00;-1.00;-1.00;18867;288;7505013;-32
2023/05/24 10:22:40;;;;;;;12.60;4.10;;;;;;;-128.00;-1.00;-1.00;18486;295;7506039;-32
2023/05/24 10:25:07;;;;;;;5.40;2.60;;;;;;;-128.00;-1.00;-1.00;18469;296;7506271;-32
2023/05/24 10:27:33;;;;;;;11.20;3.20;;;;;;;-128.00;-1.00;-1.00;18459;297;7506292;-32
2023/05/24 10:30:13;;;;;;;11.70;4.60;;;;;;;-128.00;-1.00;-1.00;18902;295;7504888;-32
2023/05/24 10:32:39;;;;;;;8.10;4.00;;;;;;;-128.00;-1.00;-1.00;18475;336;7504495;-36
2023/05/24 10:35:05;;;;;;;11.00;3.40;;;;;;;-128.00;-1.00;-1.00;18890;288;7504484;-35
2023/05/24 10:37:31;;;;;;;4.40;3.20;;;;;;;-128.00;-1.00;-1.00;18466;288;7505321;-36
2023/05/24 10:39:58;;;;;;;8.20;3.30;;;;;;;-128.00;-1.00;-1.00;18500;296;7506550;-36
2023/05/24 10:42:23;;;;;;;8.10;4.20;;;;;;;-128.00;-1.00;-1.00;18438;295;7504968;-36
2023/05/24 10:44:50;;;;;;;10.40;3.80;;;;;;;-128.00;-1.00;-1.00;18878;288;7505412;-32
2023/05/24 10:47:16;;;;;;;14.30;5.40;;;;;;;-128.00;-1.00;-1.00;18440;296;7504755;-31
2023/05/24 10:49:53;;;;;;;5.20;3.40;;;;;;;-128.00;-1.00;-1.00;18467;289;7504520;-35
2023/05/24 10:52:18;;;;;;;16.50;5.40;;;;;;;-128.00;-1.00;-1.00;18484;296;7506438;-32
2023/05/24 10:55:08;;;;;;;25.20;4.70;;;;;;;-128.00;-1.00;-1.00;18451;295;7506037;-35
2023/05/24 10:57:34;;;;;;;13.10;3.70;;;;;;;-128.00;-1.00;-1.00;18495;288;7505017;-31
2023/05/24 11:00:24;;;;;;;15.40;4.20;;;;;;;-128.00;-1.00;-1.00;18455;296;7504749;-35
2023/05/24 11:02:50;;;;;;;6.40;4.10;;;;;;;-128.00;-1.00;-1.00;18487;288;7504993;-31
2023/05/24 11:05:17;;;;;;;4.20;2.60;;;;;;;-128.00;-1.00;-1.00;18487;295;7504126;-35
2023/05/24 11:46:39;;;;;;;8.10;3.70;;;;;;;-99.85;18.57;19931.78;19570;347;8045525;-35
2023/05/24 11:49:05;;;;;;;11.10;4.80;;;;;;;-128.00;-1.00;-1.00;18556;288;7504636;-37
2023/05/24 11:51:33;;;;;;;4.90;3.50;;;;;;;-128.00;-1.00;-1.00;18875;295;7504341;-35
2023/05/24 11:53:58;;;;;;;7.00;2.70;;;;;;;-128.00;-1.00;-1.00;18476;283;7505555;-31
2023/05/24 11:56:26;;;;;;;4.10;3.40;;;;;;;-128.00;-1.00;-1.00;18471;296;7504732;-35
2023/05/24 11:58:57;;;;;;;5.80;2.80;;;;;;;-128.00;-1.00;-1.00;18494;294;7505581;-35
2023/05/24 12:01:24;;;;;;;4.00;2.80;;;;;;;-128.00;-1.00;-1.00;18465;294;7504516;-32
2023/05/24 12:03:53;;;;;;;8.50;3.80;;;;;;;-128.00;-1.00;-1.00;18512;294;7504772;-32
2023/05/24 12:06:19;;;;;;;6.20;2.90;;;;;;;-128.00;-1.00;-1.00;18471;347;7505376;-33
2023/05/24 12:08:45;;;;;;;3.50;3.00;;;;;;;-128.00;-1.00;-1.00;18484;294;7504771;-33